sensor_id;sensor_type;location;lat;lon;timestamp;P1;durP1;ratioP1;P2;durP2;ratioP2
62925;SDS011;55732;52.248;-0.844;2023-04-24T00:00:53;11.10;;;7.20;;
62925;SDS011;55732;52.248;-0.844;2023-04-24T00:03:22;13.60;;;7.10;;
62925;SDS011;55732;52.248;-0.844;2023-04-24T00:05:48;11.90;;;6.30;;
62925;SDS011;55732;52.248;-0.844;2023-04-24T00:08:13;11.30;;;7.00;;
62925;SDS011;55732;52.248;-0.844;2023-04-24T00:10:39;13.60;;;7.40;;
62925;SDS011;55732;52.248;-0.844;2023-04-24T00:13:04;13.90;;;6.80;;
62925;SDS011;55732;52.248;-0.844;2023-04-24T00:15:30;11.70;;;6.90;;
62925;SDS011;55732;52.248;-0.844;2023-04-24T00:17:56;11.70;;;7.80;;
62925;SDS011;55732;52.248;-0.844;2023-04-24T00:20:21;12.30;;;7.80;;
62925;SDS011;55732;52.248;-0.844;2023-04-24T00:22:47;12.20;;;7.40;;
62925;SDS011;55732;52.248;-0.844;2023-04-24T00:25:13;14.50;;;7.70;;
62925;SDS011;55732;52.248;-0.844;2023-04-24T00:27:38;14.40;;;8.10;;
62925;SDS011;55732;52.248;-0.844;2023-04-24T00:30:04;12.60;;;8.30;;
62925;SDS011;55732;52.248;-0.844;2023-04-24T00:32:30;15.20;;;8.40;;
62925;SDS011;55732;52.248;-0.844;2023-04-24T00:34:55;12.20;;;8.60;;
62925;SDS011;55732;52.248;-0.844;2023-04-24T00:37:21;11.60;;;7.90;;
62925;SDS011;55732;52.248;-0.844;2023-04-24T00:39:46;10.90;;;7.60;;
62925;SDS011;55732;52.248;-0.844;2023-04-24T00:42:11;11.00;;;8.50;;
62925;SDS011;55732;52.248;-0.844;2023-04-24T00:44:37;13.00;;;8.90;;
62925;SDS011;55732;52.248;-0.844;2023-04-24T00:47:03;10.60;;;7.80;;
62925;SDS011;55732;52.248;-0.844;2023-04-24T00:49:29;11.70;;;8.60;;
62925;SDS011;55732;52.248;-0.844;2023-04-24T00:51:54;11.30;;;7.80;;
62925;SDS011;55732;52.248;-0.844;2023-04-24T00:54:19;12.90;;;8.20;;
62925;SDS011;55732;52.248;-0.844;2023-04-24T00:56:45;14.60;;;8.80;;
62925;SDS011;55732;52.248;-0.844;2023-04-24T00:59:16;14.80;;;8.80;;
62925;SDS011;55732;52.248;-0.844;2023-04-24T01:01:42;14.90;;;8.50;;
62925;SDS011;55732;52.248;-0.844;2023-04-24T01:04:09;15.90;;;8.30;;
62925;SDS011;55732;52.248;-0.844;2023-04-24T01:06:37;11.40;;;6.90;;
62925;SDS011;55732;52.248;-0.844;2023-04-24T01:11:30;8.60;;;6.00;;
62925;SDS011;55732;52.248;-0.844;2023-04-24T01:13:56;11.90;;;5.00;;
62925;SDS011;55732;52.248;-0.844;2023-04-24T01:16:23;9.10;;;5.20;;
62925;SDS011;55732;52.248;-0.844;2023-04-24T01:18:49;10.00;;;4.30;;
62925;SDS011;55732;52.248;-0.844;2023-04-24T01:21:15;11.10;;;5.30;;
62925;SDS011;55732;52.248;-0.844;2023-04-24T01:23:43;10.30;;;4.50;;
62925;SDS011;55732;52.248;-0.844;2023-04-24T01:26:09;11.10;;;4.70;;
62925;SDS011;55732;52.248;-0.844;2023-04-24T01:28:35;7.10;;;4.70;;
62925;SDS011;55732;52.248;-0.844;2023-04-24T01:31:01;12.80;;;5.50;;
62925;SDS011;55732;52.248;-0.844;2023-04-24T01:33:26;11.30;;;4.80;;
62925;SDS011;55732;52.248;-0.844;2023-04-24T01:35:52;8.80;;;4.40;;
62925;SDS011;55732;52.248;-0.844;2023-04-24T01:38:17;11.30;;;4.60;;
62925;SDS011;55732;52.248;-0.844;2023-04-24T01:40:43;9.60;;;4.80;;
62925;SDS011;55732;52.248;-0.844;2023-04-24T01:43:08;10.30;;;5.00;;
62925;SDS011;55732;52.248;-0.844;2023-04-24T01:45:34;10.90;;;4.60;;
62925;SDS011;55732;52.248;-0.844;2023-04-24T01:47:59;14.20;;;5.30;;
62925;SDS011;55732;52.248;-0.844;2023-04-24T01:50:25;7.30;;;5.00;;
62925;SDS011;55732;52.248;-0.844;2023-04-24T01:52:50;8.20;;;5.10;;
62925;SDS011;55732;52.248;-0.844;2023-04-24T01:55:16;12.40;;;4.80;;
62925;SDS011;55732;52.248;-0.844;2023-04-24T01:57:41;10.20;;;4.40;;
62925;SDS011;55732;52.248;-0.844;2023-04-24T02:00:07;13.90;;;5.00;;
62925;SDS011;55732;52.248;-0.844;2023-04-24T02:02:33;12.70;;;4.90;;
62925;SDS011;55732;52.248;-0.844;2023-04-24T02:04:58;8.40;;;4.40;;
62925;SDS011;55732;52.248;-0.844;2023-04-24T02:07:24;9.80;;;4.80;;
62925;SDS011;55732;52.248;-0.844;2023-04-24T02:09:49;12.00;;;4.80;;
62925;SDS011;55732;52.248;-0.844;2023-04-24T02:12:15;7.70;;;4.20;;
62925;SDS011;55732;52.248;-0.844;2023-04-24T02:14:42;13.40;;;4.90;;
62925;SDS011;55732;52.248;-0.844;2023-04-24T02:17:08;11.80;;;4.40;;
62925;SDS011;55732;52.248;-0.844;2023-04-24T02:19:34;10.30;;;4.20;;
62925;SDS011;55732;52.248;-0.844;2023-04-24T02:21:59;13.70;;;4.10;;
62925;SDS011;55732;52.248;-0.844;2023-04-24T02:24:25;10.50;;;4.10;;
62925;SDS011;55732;52.248;-0.844;2023-04-24T02:26:50;16.00;;;4.20;;
62925;SDS011;55732;52.248;-0.844;2023-04-24T02:29:16;9.50;;;4.00;;
62925;SDS011;55732;52.248;-0.844;2023-04-24T02:31:41;8.90;;;3.80;;
62925;SDS011;55732;52.248;-0.844;2023-04-24T02:34:06;11.90;;;4.10;;
62925;SDS011;55732;52.248;-0.844;2023-04-24T02:36:32;16.50;;;4.30;;
62925;SDS011;55732;52.248;-0.844;2023-04-24T02:38:57;9.30;;;3.60;;
62925;SDS011;55732;52.248;-0.844;2023-04-24T02:41:23;12.00;;;3.70;;
62925;SDS011;55732;52.248;-0.844;2023-04-24T02:43:48;10.60;;;3.60;;
62925;SDS011;55732;52.248;-0.844;2023-04-24T02:46:13;13.10;;;4.10;;
62925;SDS011;55732;52.248;-0.844;2023-04-24T02:48:39;8.80;;;3.60;;
62925;SDS011;55732;52.248;-0.844;2023-04-24T02:51:04;9.40;;;3.70;;
62925;SDS011;55732;52.248;-0.844;2023-04-24T02:53:31;11.50;;;3.70;;
62925;SDS011;55732;52.248;-0.844;2023-04-24T02:55:57;10.10;;;3.70;;
62925;SDS011;55732;52.248;-0.844;2023-04-24T02:58:22;8.40;;;3.60;;
62925;SDS011;55732;52.248;-0.844;2023-04-24T03:00:48;13.20;;;3.40;;
62925;SDS011;55732;52.248;-0.844;2023-04-24T03:03:13;11.30;;;4.00;;
62925;SDS011;55732;52.248;-0.844;2023-04-24T03:05:40;13.40;;;3.50;;
62925;SDS011;55732;52.248;-0.844;2023-04-24T03:08:05;6.90;;;2.90;;
62925;SDS011;55732;52.248;-0.844;2023-04-24T03:10:31;13.10;;;3.10;;
62925;SDS011;55732;52.248;-0.844;2023-04-24T03:12:57;6.30;;;3.10;;
62925;SDS011;55732;52.248;-0.844;2023-04-24T03:15:22;10.70;;;2.80;;
62925;SDS011;55732;52.248;-0.844;2023-04-24T03:17:48;5.90;;;3.00;;
62925;SDS011;55732;52.248;-0.844;2023-04-24T03:20:13;9.30;;;3.00;;
62925;SDS011;55732;52.248;-0.844;2023-04-24T03:22:39;9.30;;;3.30;;
62925;SDS011;55732;52.248;-0.844;2023-04-24T03:25:05;7.50;;;3.50;;
62925;SDS011;55732;52.248;-0.844;2023-04-24T03:27:31;7.20;;;2.80;;
62925;SDS011;55732;52.248;-0.844;2023-04-24T03:29:56;5.50;;;3.00;;
62925;SDS011;55732;52.248;-0.844;2023-04-24T03:32:22;5.90;;;2.50;;
62925;SDS011;55732;52.248;-0.844;2023-04-24T03:34:48;4.90;;;2.60;;
62925;SDS011;55732;52.248;-0.844;2023-04-24T03:37:15;11.00;;;2.90;;
62925;SDS011;55732;52.248;-0.844;2023-04-24T03:39:41;7.20;;;2.90;;
62925;SDS011;55732;52.248;-0.844;2023-04-24T03:42:07;7.40;;;2.60;;
62925;SDS011;55732;52.248;-0.844;2023-04-24T03:44:33;7.50;;;2.50;;
62925;SDS011;55732;52.248;-0.844;2023-04-24T03:47:00;8.50;;;3.00;;
62925;SDS011;55732;52.248;-0.844;2023-04-24T03:49:26;9.60;;;2.90;;
62925;SDS011;55732;52.248;-0.844;2023-04-24T03:51:51;5.10;;;2.40;;
62925;SDS011;55732;52.248;-0.844;2023-04-24T03:54:18;7.50;;;2.50;;
62925;SDS011;55732;52.248;-0.844;2023-04-24T03:56:46;5.60;;;2.40;;
62925;SDS011;55732;52.248;-0.844;2023-04-24T03:59:11;8.30;;;2.70;;
62925;SDS011;55732;52.248;-0.844;2023-04-24T04:01:38;6.70;;;2.50;;
62925;SDS011;55732;52.248;-0.844;2023-04-24T04:04:04;7.30;;;2.60;;
62925;SDS011;55732;52.248;-0.844;2023-04-24T04:06:30;4.30;;;2.10;;
62925;SDS011;55732;52.248;-0.844;2023-04-24T04:08:56;7.50;;;2.70;;
62925;SDS011;55732;52.248;-0.844;2023-04-24T04:11:22;6.90;;;2.10;;
62925;SDS011;55732;52.248;-0.844;2023-04-24T04:13:48;7.20;;;2.00;;
62925;SDS011;55732;52.248;-0.844;2023-04-24T04:16:14;7.60;;;2.30;;
62925;SDS011;55732;52.248;-0.844;2023-04-24T04:18:42;4.60;;;2.40;;
62925;SDS011;55732;52.248;-0.844;2023-04-24T04:21:08;5.40;;;2.30;;
62925;SDS011;55732;52.248;-0.844;2023-04-24T04:23:33;4.50;;;2.50;;
62925;SDS011;55732;52.248;-0.844;2023-04-24T04:25:58;7.40;;;2.50;;
62925;SDS011;55732;52.248;-0.844;2023-04-24T04:28:24;6.90;;;2.80;;
62925;SDS011;55732;52.248;-0.844;2023-04-24T04:30:51;5.00;;;2.00;;
62925;SDS011;55732;52.248;-0.844;2023-04-24T04:33:20;4.70;;;2.00;;
62925;SDS011;55732;52.248;-0.844;2023-04-24T04:35:46;7.00;;;2.40;;
62925;SDS011;55732;52.248;-0.844;2023-04-24T04:38:17;3.70;;;2.10;;
62925;SDS011;55732;52.248;-0.844;2023-04-24T04:40:43;5.00;;;2.00;;
62925;SDS011;55732;52.248;-0.844;2023-04-24T04:43:09;5.00;;;1.80;;
62925;SDS011;55732;52.248;-0.844;2023-04-24T04:45:36;3.40;;;2.00;;
62925;SDS011;55732;52.248;-0.844;2023-04-24T04:48:04;4.90;;;2.10;;
62925;SDS011;55732;52.248;-0.844;2023-04-24T04:50:29;6.00;;;2.40;;
62925;SDS011;55732;52.248;-0.844;2023-04-24T04:52:55;5.20;;;1.80;;
62925;SDS011;55732;52.248;-0.844;2023-04-24T04:55:20;4.50;;;1.90;;
62925;SDS011;55732;52.248;-0.844;2023-04-24T04:57:46;3.50;;;2.00;;
62925;SDS011;55732;52.248;-0.844;2023-04-24T05:00:11;3.90;;;1.90;;
62925;SDS011;55732;52.248;-0.844;2023-04-24T05:02:40;4.20;;;1.80;;
62925;SDS011;55732;52.248;-0.844;2023-04-24T05:05:06;5.30;;;2.00;;
62925;SDS011;55732;52.248;-0.844;2023-04-24T05:07:32;4.20;;;1.80;;
62925;SDS011;55732;52.248;-0.844;2023-04-24T05:09:58;4.50;;;1.70;;
62925;SDS011;55732;52.248;-0.844;2023-04-24T05:12:23;6.80;;;2.10;;
62925;SDS011;55732;52.248;-0.844;2023-04-24T05:14:48;5.80;;;2.10;;
62925;SDS011;55732;52.248;-0.844;2023-04-24T05:17:14;5.20;;;2.10;;
62925;SDS011;55732;52.248;-0.844;2023-04-24T05:19:40;4.90;;;2.10;;
62925;SDS011;55732;52.248;-0.844;2023-04-24T05:22:06;5.00;;;2.00;;
62925;SDS011;55732;52.248;-0.844;2023-04-24T05:24:35;4.80;;;2.00;;
62925;SDS011;55732;52.248;-0.844;2023-04-24T05:27:01;5.50;;;2.30;;
62925;SDS011;55732;52.248;-0.844;2023-04-24T05:29:27;5.90;;;1.80;;
62925;SDS011;55732;52.248;-0.844;2023-04-24T05:31:55;5.90;;;2.20;;
62925;SDS011;55732;52.248;-0.844;2023-04-24T05:34:21;3.50;;;1.60;;
62925;SDS011;55732;52.248;-0.844;2023-04-24T05:36:46;4.70;;;1.90;;
62925;SDS011;55732;52.248;-0.844;2023-04-24T05:39:12;7.10;;;2.40;;
62925;SDS011;55732;52.248;-0.844;2023-04-24T05:41:38;7.70;;;2.00;;
62925;SDS011;55732;52.248;-0.844;2023-04-24T05:44:03;4.50;;;2.50;;
62925;SDS011;55732;52.248;-0.844;2023-04-24T05:46:29;6.40;;;2.50;;
62925;SDS011;55732;52.248;-0.844;2023-04-24T05:48:54;5.60;;;2.00;;
62925;SDS011;55732;52.248;-0.844;2023-04-24T05:51:20;6.80;;;2.00;;
62925;SDS011;55732;52.248;-0.844;2023-04-24T05:53:45;5.40;;;2.20;;
62925;SDS011;55732;52.248;-0.844;2023-04-24T05:56:11;5.60;;;2.20;;
62925;SDS011;55732;52.248;-0.844;2023-04-24T05:58:36;3.20;;;1.90;;
62925;SDS011;55732;52.248;-0.844;2023-04-24T06:01:03;4.00;;;2.00;;
62925;SDS011;55732;52.248;-0.844;2023-04-24T06:03:28;3.90;;;2.20;;
62925;SDS011;55732;52.248;-0.844;2023-04-24T06:05:53;4.30;;;2.30;;
62925;SDS011;55732;52.248;-0.844;2023-04-24T06:08:19;4.50;;;2.20;;
62925;SDS011;55732;52.248;-0.844;2023-04-24T06:10:44;3.30;;;1.70;;
62925;SDS011;55732;52.248;-0.844;2023-04-24T06:13:10;3.50;;;1.90;;
62925;SDS011;55732;52.248;-0.844;2023-04-24T06:15:36;4.00;;;1.90;;
62925;SDS011;55732;52.248;-0.844;2023-04-24T06:18:02;4.00;;;2.00;;
62925;SDS011;55732;52.248;-0.844;2023-04-24T06:20:27;10.80;;;3.00;;
62925;SDS011;55732;52.248;-0.844;2023-04-24T06:22:53;4.20;;;1.90;;
62925;SDS011;55732;52.248;-0.844;2023-04-24T06:25:19;4.60;;;1.80;;
62925;SDS011;55732;52.248;-0.844;2023-04-24T06:27:44;7.40;;;1.80;;
62925;SDS011;55732;52.248;-0.844;2023-04-24T06:30:10;5.20;;;1.90;;
62925;SDS011;55732;52.248;-0.844;2023-04-24T06:32:36;8.00;;;2.30;;
62925;SDS011;55732;52.248;-0.844;2023-04-24T06:35:01;6.70;;;2.10;;
62925;SDS011;55732;52.248;-0.844;2023-04-24T06:37:26;6.70;;;1.80;;
62925;SDS011;55732;52.248;-0.844;2023-04-24T06:39:52;4.10;;;2.30;;
62925;SDS011;55732;52.248;-0.844;2023-04-24T06:42:17;4.90;;;1.70;;
62925;SDS011;55732;52.248;-0.844;2023-04-24T06:44:45;3.30;;;1.70;;
62925;SDS011;55732;52.248;-0.844;2023-04-24T06:47:11;3.80;;;2.20;;
62925;SDS011;55732;52.248;-0.844;2023-04-24T06:49:38;4.40;;;2.00;;
62925;SDS011;55732;52.248;-0.844;2023-04-24T06:52:04;3.60;;;1.80;;
62925;SDS011;55732;52.248;-0.844;2023-04-24T06:54:31;6.00;;;2.00;;
62925;SDS011;55732;52.248;-0.844;2023-04-24T06:56:57;6.40;;;2.20;;
62925;SDS011;55732;52.248;-0.844;2023-04-24T06:59:24;3.30;;;1.80;;
62925;SDS011;55732;52.248;-0.844;2023-04-24T07:01:50;5.50;;;1.90;;
62925;SDS011;55732;52.248;-0.844;2023-04-24T07:04:18;4.90;;;1.90;;
62925;SDS011;55732;52.248;-0.844;2023-04-24T07:06:47;4.30;;;1.70;;
62925;SDS011;55732;52.248;-0.844;2023-04-24T07:09:14;4.50;;;2.00;;
62925;SDS011;55732;52.248;-0.844;2023-04-24T07:11:41;5.80;;;1.90;;
62925;SDS011;55732;52.248;-0.844;2023-04-24T07:14:07;4.90;;;2.20;;
62925;SDS011;55732;52.248;-0.844;2023-04-24T07:16:33;4.90;;;1.90;;
62925;SDS011;55732;52.248;-0.844;2023-04-24T07:18:59;5.60;;;1.90;;
62925;SDS011;55732;52.248;-0.844;2023-04-24T07:21:25;4.30;;;2.20;;
62925;SDS011;55732;52.248;-0.844;2023-04-24T07:23:50;2.80;;;1.50;;
62925;SDS011;55732;52.248;-0.844;2023-04-24T07:26:16;4.30;;;1.60;;
62925;SDS011;55732;52.248;-0.844;2023-04-24T07:28:42;6.10;;;1.90;;
62925;SDS011;55732;52.248;-0.844;2023-04-24T07:31:07;4.10;;;1.70;;
62925;SDS011;55732;52.248;-0.844;2023-04-24T07:33:33;4.70;;;1.60;;
62925;SDS011;55732;52.248;-0.844;2023-04-24T07:35:59;6.10;;;1.90;;
62925;SDS011;55732;52.248;-0.844;2023-04-24T07:38:25;5.50;;;1.90;;
62925;SDS011;55732;52.248;-0.844;2023-04-24T07:40:51;3.40;;;1.60;;
62925;SDS011;55732;52.248;-0.844;2023-04-24T07:43:16;4.50;;;1.80;;
62925;SDS011;55732;52.248;-0.844;2023-04-24T07:45:43;3.50;;;1.70;;
62925;SDS011;55732;52.248;-0.844;2023-04-24T07:48:09;5.10;;;2.00;;
62925;SDS011;55732;52.248;-0.844;2023-04-24T07:50:35;5.00;;;1.90;;
62925;SDS011;55732;52.248;-0.844;2023-04-24T07:53:01;4.00;;;1.70;;
62925;SDS011;55732;52.248;-0.844;2023-04-24T07:55:27;8.00;;;1.90;;
62925;SDS011;55732;52.248;-0.844;2023-04-24T07:57:52;4.90;;;1.50;;
62925;SDS011;55732;52.248;-0.844;2023-04-24T08:00:18;5.10;;;1.80;;
62925;SDS011;55732;52.248;-0.844;2023-04-24T08:02:44;3.50;;;1.80;;
62925;SDS011;55732;52.248;-0.844;2023-04-24T08:05:10;4.10;;;1.80;;
62925;SDS011;55732;52.248;-0.844;2023-04-24T08:07:35;3.30;;;1.50;;
62925;SDS011;55732;52.248;-0.844;2023-04-24T08:10:01;6.40;;;2.10;;
62925;SDS011;55732;52.248;-0.844;2023-04-24T08:12:30;5.00;;;2.00;;
62925;SDS011;55732;52.248;-0.844;2023-04-24T08:14:56;7.30;;;2.00;;
62925;SDS011;55732;52.248;-0.844;2023-04-24T08:17:21;7.70;;;2.10;;
62925;SDS011;55732;52.248;-0.844;2023-04-24T08:19:46;4.00;;;1.80;;
62925;SDS011;55732;52.248;-0.844;2023-04-24T08:22:16;2.80;;;1.20;;
62925;SDS011;55732;52.248;-0.844;2023-04-24T08:24:42;4.30;;;1.70;;
62925;SDS011;55732;52.248;-0.844;2023-04-24T08:27:08;4.90;;;1.50;;
62925;SDS011;55732;52.248;-0.844;2023-04-24T08:29:33;7.30;;;1.70;;
62925;SDS011;55732;52.248;-0.844;2023-04-24T08:31:59;2.20;;;1.10;;
62925;SDS011;55732;52.248;-0.844;2023-04-24T08:34:24;5.10;;;1.80;;
62925;SDS011;55732;52.248;-0.844;2023-04-24T08:36:50;3.50;;;1.70;;
62925;SDS011;55732;52.248;-0.844;2023-04-24T08:39:15;3.20;;;1.50;;
62925;SDS011;55732;52.248;-0.844;2023-04-24T08:41:43;3.40;;;1.50;;
62925;SDS011;55732;52.248;-0.844;2023-04-24T08:44:10;5.50;;;1.80;;
62925;SDS011;55732;52.248;-0.844;2023-04-24T08:46:37;3.20;;;1.70;;
62925;SDS011;55732;52.248;-0.844;2023-04-24T08:49:04;5.80;;;2.00;;
62925;SDS011;55732;52.248;-0.844;2023-04-24T08:51:30;4.40;;;1.80;;
62925;SDS011;55732;52.248;-0.844;2023-04-24T08:53:56;6.70;;;2.20;;
62925;SDS011;55732;52.248;-0.844;2023-04-24T08:56:22;4.20;;;1.80;;
62925;SDS011;55732;52.248;-0.844;2023-04-24T08:58:51;6.20;;;2.00;;
62925;SDS011;55732;52.248;-0.844;2023-04-24T09:01:19;7.00;;;2.40;;
62925;SDS011;55732;52.248;-0.844;2023-04-24T09:03:46;2.70;;;1.50;;
62925;SDS011;55732;52.248;-0.844;2023-04-24T09:06:13;5.60;;;2.20;;
62925;SDS011;55732;52.248;-0.844;2023-04-24T09:08:40;5.20;;;1.90;;
62925;SDS011;55732;52.248;-0.844;2023-04-24T09:11:07;6.10;;;2.00;;
62925;SDS011;55732;52.248;-0.844;2023-04-24T09:13:34;6.20;;;1.90;;
62925;SDS011;55732;52.248;-0.844;2023-04-24T09:16:00;4.50;;;1.60;;
62925;SDS011;55732;52.248;-0.844;2023-04-24T09:18:25;5.70;;;2.00;;
62925;SDS011;55732;52.248;-0.844;2023-04-24T09:23:32;6.50;;;2.00;;
62925;SDS011;55732;52.248;-0.844;2023-04-24T09:25:58;5.30;;;1.80;;
62925;SDS011;55732;52.248;-0.844;2023-04-24T09:28:29;4.40;;;2.00;;
62925;SDS011;55732;52.248;-0.844;2023-04-24T09:31:02;8.00;;;2.00;;
62925;SDS011;55732;52.248;-0.844;2023-04-24T09:33:29;6.00;;;1.90;;
62925;SDS011;55732;52.248;-0.844;2023-04-24T09:35:55;6.60;;;2.10;;
62925;SDS011;55732;52.248;-0.844;2023-04-24T09:38:30;5.10;;;2.40;;
62925;SDS011;55732;52.248;-0.844;2023-04-24T09:40:59;5.20;;;1.90;;
62925;SDS011;55732;52.248;-0.844;2023-04-24T09:43:27;3.50;;;1.90;;
62925;SDS011;55732;52.248;-0.844;2023-04-24T09:45:55;3.00;;;1.60;;
62925;SDS011;55732;52.248;-0.844;2023-04-24T09:48:34;6.60;;;2.10;;
62925;SDS011;55732;52.248;-0.844;2023-04-24T09:51:02;3.30;;;1.90;;
62925;SDS011;55732;52.248;-0.844;2023-04-24T09:53:29;6.40;;;2.10;;
62925;SDS011;55732;52.248;-0.844;2023-04-24T09:55:56;3.20;;;1.60;;
62925;SDS011;55732;52.248;-0.844;2023-04-24T09:58:27;6.70;;;1.80;;
62925;SDS011;55732;52.248;-0.844;2023-04-24T10:00:54;3.60;;;1.80;;
62925;SDS011;55732;52.248;-0.844;2023-04-24T10:03:22;7.00;;;3.20;;
62925;SDS011;55732;52.248;-0.844;2023-04-24T10:05:49;5.30;;;1.90;;
62925;SDS011;55732;52.248;-0.844;2023-04-24T10:08:16;5.10;;;1.80;;
62925;SDS011;55732;52.248;-0.844;2023-04-24T10:10:42;4.60;;;2.00;;
62925;SDS011;55732;52.248;-0.844;2023-04-24T10:13:12;4.70;;;1.80;;
62925;SDS011;55732;52.248;-0.844;2023-04-24T10:15:40;5.00;;;2.00;;
62925;SDS011;55732;52.248;-0.844;2023-04-24T10:18:06;5.20;;;2.60;;
62925;SDS011;55732;52.248;-0.844;2023-04-24T10:20:34;2.70;;;1.70;;
62925;SDS011;55732;52.248;-0.844;2023-04-24T10:23:01;6.10;;;1.90;;
62925;SDS011;55732;52.248;-0.844;2023-04-24T10:25:29;4.20;;;1.80;;
62925;SDS011;55732;52.248;-0.844;2023-04-24T10:27:58;4.20;;;1.90;;
62925;SDS011;55732;52.248;-0.844;2023-04-24T10:30:26;5.40;;;2.10;;
62925;SDS011;55732;52.248;-0.844;2023-04-24T10:32:53;3.70;;;1.70;;
62925;SDS011;55732;52.248;-0.844;2023-04-24T10:35:19;5.20;;;1.90;;
62925;SDS011;55732;52.248;-0.844;2023-04-24T10:38:03;3.70;;;1.80;;
62925;SDS011;55732;52.248;-0.844;2023-04-24T10:40:32;3.10;;;1.70;;
62925;SDS011;55732;52.248;-0.844;2023-04-24T10:42:59;4.70;;;2.00;;
62925;SDS011;55732;52.248;-0.844;2023-04-24T10:45:28;2.00;;;1.50;;
62925;SDS011;55732;52.248;-0.844;2023-04-24T10:48:00;4.10;;;1.70;;
62925;SDS011;55732;52.248;-0.844;2023-04-24T10:50:28;3.90;;;1.90;;
62925;SDS011;55732;52.248;-0.844;2023-04-24T10:55:50;4.50;;;1.50;;
62925;SDS011;55732;52.248;-0.844;2023-04-24T11:01:03;8.70;;;1.90;;
62925;SDS011;55732;52.248;-0.844;2023-04-24T11:03:32;8.20;;;2.40;;
62925;SDS011;55732;52.248;-0.844;2023-04-24T11:06:06;4.00;;;2.00;;
62925;SDS011;55732;52.248;-0.844;2023-04-24T11:11:08;4.70;;;1.50;;
62925;SDS011;55732;52.248;-0.844;2023-04-24T11:16:43;3.50;;;1.50;;
62925;SDS011;55732;52.248;-0.844;2023-04-24T11:19:20;3.10;;;2.20;;
62925;SDS011;55732;52.248;-0.844;2023-04-24T11:29:49;3.90;;;1.60;;
62925;SDS011;55732;52.248;-0.844;2023-04-24T11:35:20;4.10;;;2.10;;
62925;SDS011;55732;52.248;-0.844;2023-04-24T11:37:50;3.60;;;1.80;;
62925;SDS011;55732;52.248;-0.844;2023-04-24T11:40:18;4.60;;;2.10;;
62925;SDS011;55732;52.248;-0.844;2023-04-24T11:42:46;3.30;;;1.50;;
62925;SDS011;55732;52.248;-0.844;2023-04-24T11:45:13;3.30;;;1.90;;
62925;SDS011;55732;52.248;-0.844;2023-04-24T11:47:57;3.00;;;1.70;;
62925;SDS011;55732;52.248;-0.844;2023-04-24T11:50:24;5.10;;;2.10;;
62925;SDS011;55732;52.248;-0.844;2023-04-24T11:52:52;4.90;;;1.90;;
62925;SDS011;55732;52.248;-0.844;2023-04-24T11:57:44;3.90;;;1.90;;
62925;SDS011;55732;52.248;-0.844;2023-04-24T12:00:18;4.70;;;1.80;;
62925;SDS011;55732;52.248;-0.844;2023-04-24T12:02:45;4.10;;;2.30;;
62925;SDS011;55732;52.248;-0.844;2023-04-24T12:05:21;4.40;;;2.10;;
62925;SDS011;55732;52.248;-0.844;2023-04-24T12:07:48;5.50;;;2.20;;
62925;SDS011;55732;52.248;-0.844;2023-04-24T12:10:19;7.70;;;2.30;;
62925;SDS011;55732;52.248;-0.844;2023-04-24T12:12:45;3.70;;;2.20;;
62925;SDS011;55732;52.248;-0.844;2023-04-24T12:15:11;8.30;;;2.10;;
62925;SDS011;55732;52.248;-0.844;2023-04-24T12:17:40;5.10;;;2.30;;
62925;SDS011;55732;52.248;-0.844;2023-04-24T12:20:07;5.90;;;2.20;;
62925;SDS011;55732;52.248;-0.844;2023-04-24T12:22:47;6.80;;;2.80;;
62925;SDS011;55732;52.248;-0.844;2023-04-24T12:25:16;4.70;;;2.20;;
62925;SDS011;55732;52.248;-0.844;2023-04-24T12:27:44;6.90;;;2.20;;
62925;SDS011;55732;52.248;-0.844;2023-04-24T12:30:15;5.50;;;2.20;;
62925;SDS011;55732;52.248;-0.844;2023-04-24T12:32:45;7.10;;;2.20;;
62925;SDS011;55732;52.248;-0.844;2023-04-24T12:35:13;4.40;;;2.00;;
62925;SDS011;55732;52.248;-0.844;2023-04-24T12:37:43;5.10;;;2.30;;
62925;SDS011;55732;52.248;-0.844;2023-04-24T12:40:09;5.80;;;2.70;;
62925;SDS011;55732;52.248;-0.844;2023-04-24T12:42:41;4.90;;;2.30;;
62925;SDS011;55732;52.248;-0.844;2023-04-24T12:45:08;5.40;;;2.30;;
62925;SDS011;55732;52.248;-0.844;2023-04-24T12:47:34;4.60;;;2.10;;
62925;SDS011;55732;52.248;-0.844;2023-04-24T12:50:00;6.50;;;2.70;;
62925;SDS011;55732;52.248;-0.844;2023-04-24T12:52:27;3.40;;;2.20;;
62925;SDS011;55732;52.248;-0.844;2023-04-24T12:54:54;7.70;;;2.90;;
62925;SDS011;55732;52.248;-0.844;2023-04-24T12:57:22;5.60;;;2.40;;
62925;SDS011;55732;52.248;-0.844;2023-04-24T12:59:49;4.40;;;2.30;;
62925;SDS011;55732;52.248;-0.844;2023-04-24T13:02:15;4.30;;;2.20;;
62925;SDS011;55732;52.248;-0.844;2023-04-24T13:04:46;4.60;;;2.20;;
62925;SDS011;55732;52.248;-0.844;2023-04-24T13:07:12;5.00;;;2.50;;
62925;SDS011;55732;52.248;-0.844;2023-04-24T13:09:39;5.60;;;2.50;;
62925;SDS011;55732;52.248;-0.844;2023-04-24T13:12:04;6.00;;;2.40;;
62925;SDS011;55732;52.248;-0.844;2023-04-24T13:14:31;12.00;;;2.60;;
62925;SDS011;55732;52.248;-0.844;2023-04-24T13:16:57;4.80;;;2.20;;
62925;SDS011;55732;52.248;-0.844;2023-04-24T13:19:24;4.60;;;2.40;;
62925;SDS011;55732;52.248;-0.844;2023-04-24T13:21:50;5.20;;;2.40;;
62925;SDS011;55732;52.248;-0.844;2023-04-24T13:24:16;5.30;;;2.40;;
62925;SDS011;55732;52.248;-0.844;2023-04-24T13:26:42;5.40;;;3.10;;
62925;SDS011;55732;52.248;-0.844;2023-04-24T13:29:08;7.30;;;2.50;;
62925;SDS011;55732;52.248;-0.844;2023-04-24T13:31:34;7.60;;;2.40;;
62925;SDS011;55732;52.248;-0.844;2023-04-24T13:34:00;6.10;;;2.40;;
62925;SDS011;55732;52.248;-0.844;2023-04-24T13:36:26;5.60;;;2.40;;
62925;SDS011;55732;52.248;-0.844;2023-04-24T13:38:51;4.90;;;2.40;;
62925;SDS011;55732;52.248;-0.844;2023-04-24T13:41:17;4.90;;;2.50;;
62925;SDS011;55732;52.248;-0.844;2023-04-24T13:43:42;4.60;;;2.20;;
62925;SDS011;55732;52.248;-0.844;2023-04-24T13:46:08;4.20;;;2.30;;
62925;SDS011;55732;52.248;-0.844;2023-04-24T13:48:33;5.80;;;2.50;;
62925;SDS011;55732;52.248;-0.844;2023-04-24T13:50:59;7.30;;;2.30;;
62925;SDS011;55732;52.248;-0.844;2023-04-24T13:53:24;4.90;;;2.20;;
62925;SDS011;55732;52.248;-0.844;2023-04-24T13:55:50;9.30;;;2.60;;
62925;SDS011;55732;52.248;-0.844;2023-04-24T13:58:15;5.40;;;2.40;;
62925;SDS011;55732;52.248;-0.844;2023-04-24T14:00:41;6.10;;;2.10;;
62925;SDS011;55732;52.248;-0.844;2023-04-24T14:03:06;9.80;;;2.60;;
62925;SDS011;55732;52.248;-0.844;2023-04-24T14:05:31;6.70;;;2.20;;
62925;SDS011;55732;52.248;-0.844;2023-04-24T14:07:57;6.90;;;2.80;;
62925;SDS011;55732;52.248;-0.844;2023-04-24T14:10:23;7.10;;;2.70;;
62925;SDS011;55732;52.248;-0.844;2023-04-24T14:12:48;6.10;;;2.60;;
62925;SDS011;55732;52.248;-0.844;2023-04-24T14:15:14;5.60;;;2.40;;
62925;SDS011;55732;52.248;-0.844;2023-04-24T14:17:40;6.70;;;2.30;;
62925;SDS011;55732;52.248;-0.844;2023-04-24T14:20:05;4.10;;;2.30;;
62925;SDS011;55732;52.248;-0.844;2023-04-24T14:22:32;5.40;;;2.10;;
62925;SDS011;55732;52.248;-0.844;2023-04-24T14:24:57;5.90;;;2.10;;
62925;SDS011;55732;52.248;-0.844;2023-04-24T14:27:23;5.00;;;2.00;;
62925;SDS011;55732;52.248;-0.844;2023-04-24T14:29:50;5.40;;;2.00;;
62925;SDS011;55732;52.248;-0.844;2023-04-24T14:32:15;3.60;;;2.10;;
62925;SDS011;55732;52.248;-0.844;2023-04-24T14:34:41;4.60;;;2.00;;
62925;SDS011;55732;52.248;-0.844;2023-04-24T14:37:07;4.10;;;2.20;;
62925;SDS011;55732;52.248;-0.844;2023-04-24T14:39:32;7.30;;;2.70;;
62925;SDS011;55732;52.248;-0.844;2023-04-24T14:41:58;7.70;;;2.70;;
62925;SDS011;55732;52.248;-0.844;2023-04-24T14:44:23;3.90;;;2.30;;
62925;SDS011;55732;52.248;-0.844;2023-04-24T14:46:49;8.90;;;3.10;;
62925;SDS011;55732;52.248;-0.844;2023-04-24T14:49:14;9.40;;;3.40;;
62925;SDS011;55732;52.248;-0.844;2023-04-24T14:51:40;6.30;;;2.50;;
62925;SDS011;55732;52.248;-0.844;2023-04-24T14:54:06;9.90;;;3.80;;
62925;SDS011;55732;52.248;-0.844;2023-04-24T14:56:32;8.80;;;3.20;;
62925;SDS011;55732;52.248;-0.844;2023-04-24T14:58:57;9.90;;;4.40;;